createdAt,value
2019-01-19T00:00:57.619Z,66.70
2019-01-19T00:03:59.263Z,66.59
2019-01-19T00:06:52.109Z,66.39
2019-01-19T00:09:54.023Z,66.45
2019-01-19T00:12:33.154Z,66.64
2019-01-19T00:15:09.523Z,66.73
2019-01-19T00:18:13.177Z,66.70
2019-01-19T00:21:28.611Z,66.81
2019-01-19T00:24:15.554Z,66.88
2019-01-19T00:27:15.246Z,66.79
2019-01-19T00:30:29.273Z,66.88
2019-01-19T00:33:38.482Z,67.00
2019-01-19T00:36:29.023Z,66.98
2019-01-19T00:39:17.982Z,66.97
2019-01-19T00:42:20.354Z,67.02
2019-01-19T00:45:21.610Z,66.97
2019-01-19T00:48:20.743Z,67.06
2019-01-19T00:51:26.169Z,67.14
2019-01-19T00:54:19.536Z,67.03
2019-01-19T00:57:05.012Z,67.06
2019-01-19T00:59:38.020Z,66.97
2019-01-19T01:02:51.958Z,67.00
2019-01-19T01:05:25.808Z,67.13
2019-01-19T01:08:18.634Z,67.24
2019-01-19T01:11:13.048Z,67.12
2019-01-19T01:14:32.316Z,67.08
2019-01-19T01:17:43.125Z,67.00
2019-01-19T01:20:45.104Z,67.09
2019-01-19T01:23:28.469Z,67.39
2019-01-19T01:26:34.627Z,67.50
2019-01-19T01:29:44.472Z,67.35
2019-01-19T01:32:52.640Z,67.45
2019-01-19T01:35:57.298Z,67.61
2019-01-19T01:38:49.174Z,67.48
2019-01-19T01:41:43.367Z,67.66
2019-01-19T01:44:44.834Z,67.73
2019-01-19T01:47:51.358Z,67.76
2019-01-19T01:50:53.104Z,67.88
2019-01-19T01:53:59.726Z,67.99
2019-01-19T01:56:28.267Z,67.87
2019-01-19T01:59:37.453Z,68.03
2019-01-19T02:02:43.447Z,68.11
2019-01-19T02:05:46.218Z,68.11
2019-01-19T02:08:33.178Z,68.23
2019-01-19T02:11:54.314Z,68.09
2019-01-19T02:14:32.707Z,67.97
2019-01-19T02:17:50.718Z,68.05
2019-01-19T02:21:03.048Z,67.97
2019-01-19T02:24:13.682Z,67.84
2019-01-19T02:27:11.580Z,67.69
2019-01-19T02:30:23.848Z,67.59
2019-01-19T02:33:17.743Z,67.44
2019-01-19T02:36:15.241Z,67.37
2019-01-19T02:39:18.252Z,67.43
2019-01-19T02:42:12.402Z,67.51
2019-01-19T02:45:08.223Z,67.38
2019-01-19T02:48:23.806Z,67.35
2019-01-19T02:51:03.595Z,67.44
2019-01-19T02:54:14.118Z,67.28
2019-01-19T02:57:38.229Z,67.16
2019-01-19T03:00:39.426Z,67.15
2019-01-19T03:03:52.155Z,67.15
2019-01-19T03:06:29.861Z,67.29
2019-01-19T03:09:08.863Z,67.36
2019-01-19T03:11:50.981Z,67.33
2019-01-19T03:14:53.741Z,67.29
2019-01-19T03:17:48.396Z,67.35
2019-01-19T03:20:55.169Z,67.32
2019-01-19T03:24:05.373Z,67.46
2019-01-19T03:26:49.097Z,67.44
2019-01-19T03:29:34.540Z,67.53
2019-01-19T03:33:02.677Z,67.53
2019-01-19T03:36:20.032Z,67.61
2019-01-19T03:39:23.888Z,67.76
2019-01-19T03:42:45.286Z,68.14
2019-01-19T03:45:41.312Z,68.09
2019-01-19T03:48:35.254Z,68.21
2019-01-19T03:51:36.312Z,68.44
2019-01-19T03:54:17.033Z,68.44
2019-01-19T03:57:05.386Z,68.39
2019-01-19T04:00:16.205Z,68.32
2019-01-19T04:03:24.277Z,68.37
2019-01-19T04:06:19.860Z,68.42
2019-01-19T04:09:12.384Z,68.49
2019-01-19T04:12:04.084Z,68.41
2019-01-19T04:14:55.439Z,68.29
2019-01-19T04:17:48.109Z,68.30
2019-01-19T04:20:59.336Z,68.32
2019-01-19T04:23:27.428Z,68.40
2019-01-19T04:26:09.969Z,68.39
2019-01-19T04:28:38.236Z,68.50
2019-01-19T04:31:06.602Z,68.63
2019-01-19T04:33:35.003Z,68.75
2019-01-19T04:36:03.435Z,68.73
2019-01-19T04:38:33.713Z,68.69
2019-01-19T04:41:02.085Z,68.71
2019-01-19T04:43:30.034Z,68.69
2019-01-19T04:45:58.252Z,68.51
2019-01-19T04:48:26.760Z,68.49
2019-01-19T04:50:54.954Z,68.59
2019-01-19T04:53:23.107Z,68.56
2019-01-19T04:55:52.336Z,68.56
2019-01-19T04:58:20.438Z,68.57
2019-01-19T05:00:50.126Z,68.48
2019-01-19T05:03:18.419Z,68.38
2019-01-19T05:05:47.732Z,68.27
2019-01-19T05:08:16.690Z,68.31
2019-01-19T05:10:56.027Z,68.46
2019-01-19T05:13:26.187Z,68.55
2019-01-19T05:15:55.950Z,68.67
2019-01-19T05:18:24.893Z,68.63
2019-01-19T05:20:54.356Z,68.62
2019-01-19T05:23:22.922Z,68.66
2019-01-19T05:25:51.429Z,68.52
2019-01-19T05:28:19.445Z,68.51
2019-01-19T05:30:47.496Z,68.50
2019-01-19T05:33:15.683Z,68.47
2019-01-19T05:35:43.749Z,68.49
2019-01-19T05:38:12.262Z,68.62
2019-01-19T05:40:40.974Z,68.71
2019-01-19T05:43:08.951Z,68.79
2019-01-19T05:45:37.620Z,68.82
2019-01-19T05:48:06.043Z,68.79
2019-01-19T05:50:34.463Z,68.81
2019-01-19T05:53:03.950Z,68.76
2019-01-19T05:55:33.214Z,68.74
2019-01-19T05:58:01.294Z,68.73
2019-01-19T06:00:36.480Z,68.62
2019-01-19T06:03:05.293Z,68.59
2019-01-19T06:05:33.516Z,68.77
2019-01-19T06:08:03.212Z,68.84
2019-01-19T06:10:31.235Z,68.87
2019-01-19T06:13:00.038Z,68.99
2019-01-19T06:15:28.185Z,69.05
2019-01-19T06:17:56.476Z,69.00
2019-01-19T06:20:25.213Z,69.00
2019-01-19T06:22:54.441Z,68.94
2019-01-19T06:25:33.072Z,68.94
2019-01-19T06:28:01.097Z,68.94
2019-01-19T06:30:30.384Z,69.10
2019-01-19T06:32:59.013Z,69.21
2019-01-19T06:35:27.874Z,69.14
2019-01-19T06:37:56.282Z,69.09
2019-01-19T06:40:26.123Z,69.10
2019-01-19T06:42:54.604Z,69.01
2019-01-19T06:45:27.695Z,69.15
2019-01-19T06:47:56.022Z,69.39
2019-01-19T06:50:24.268Z,69.39
2019-01-19T06:52:55.773Z,69.51
2019-01-19T06:55:32.039Z,69.72
2019-01-19T06:58:00.119Z,69.75
2019-01-19T07:00:29.411Z,69.67
2019-01-19T07:02:57.752Z,69.98
2019-01-19T07:05:25.832Z,70.24
2019-01-19T07:07:57.716Z,70.43
2019-01-19T07:10:26.827Z,70.39
2019-01-19T07:12:54.844Z,70.25
2019-01-19T07:15:27.322Z,70.16
2019-01-19T07:18:28.999Z,70.01
2019-01-19T07:20:57.255Z,70.11
2019-01-19T07:23:25.640Z,70.22
2019-01-19T07:25:56.224Z,70.27
2019-01-19T07:28:24.549Z,70.58
2019-01-19T07:30:53.100Z,70.89
2019-01-19T07:33:22.664Z,71.08
2019-01-19T07:35:51.088Z,71.12
2019-01-19T07:38:22.380Z,71.16
2019-01-19T07:40:52.259Z,70.85
2019-01-19T07:43:22.339Z,70.76
2019-01-19T07:45:51.215Z,70.73
2019-01-19T07:48:19.638Z,70.83
2019-01-19T07:50:49.464Z,70.93
2019-01-19T07:53:17.719Z,70.98
2019-01-19T07:55:46.329Z,70.92
2019-01-19T07:58:16.080Z,70.86
2019-01-19T08:00:44.828Z,70.64
2019-01-19T08:03:14.457Z,70.60
2019-01-19T08:05:46.103Z,70.62
2019-01-19T08:08:16.546Z,70.53
2019-01-19T08:10:45.502Z,70.31
2019-01-19T08:13:15.153Z,70.27
2019-01-19T08:15:44.449Z,70.08
2019-01-19T08:18:13.973Z,69.98
2019-01-19T08:20:42.337Z,69.81
2019-01-19T08:23:10.581Z,69.65
2019-01-19T08:25:38.856Z,69.56
2019-01-19T08:28:09.772Z,69.40
2019-01-19T08:30:38.567Z,69.26
2019-01-19T08:33:07.202Z,68.81
2019-01-19T08:35:36.342Z,68.60
2019-01-19T08:38:07.496Z,68.37
2019-01-19T08:40:38.682Z,68.37
2019-01-19T08:43:26.426Z,68.53
2019-01-19T08:45:55.009Z,68.68
2019-01-19T08:48:23.421Z,68.66
2019-01-19T08:50:54.659Z,68.60
2019-01-19T08:53:22.763Z,68.53
2019-01-19T08:55:52.030Z,68.31
2019-01-19T08:58:20.232Z,68.12
2019-01-19T09:00:49.589Z,67.89
2019-01-19T09:03:18.414Z,67.83
2019-01-19T09:05:53.778Z,67.73
2019-01-19T09:08:30.919Z,67.70
2019-01-19T09:11:03.769Z,67.46
2019-01-19T09:13:31.879Z,67.05
2019-01-19T09:16:20.263Z,66.93
2019-01-19T09:18:50.665Z,66.54
2019-01-19T09:21:22.432Z,66.31
2019-01-19T09:24:07.131Z,66.16
2019-01-19T09:26:35.555Z,66.14
2019-01-19T09:29:08.931Z,66.12
2019-01-19T09:31:39.800Z,66.11
2019-01-19T09:34:08.089Z,66.27
2019-01-19T09:36:38.608Z,66.22
2019-01-19T09:39:15.756Z,66.21
2019-01-19T09:41:44.757Z,65.95
2019-01-19T09:44:12.783Z,65.76
2019-01-19T09:46:44.885Z,65.66
2019-01-19T09:49:19.789Z,65.34
2019-01-19T09:51:49.593Z,65.12
2019-01-19T09:54:44.889Z,64.89
2019-01-19T09:57:13.234Z,64.77
2019-01-19T09:59:41.971Z,64.61
2019-01-19T10:02:19.095Z,64.44
2019-01-19T10:04:50.224Z,64.23
2019-01-19T10:07:18.455Z,63.90
2019-01-19T10:09:54.800Z,63.63
2019-01-19T10:12:23.611Z,63.34
2019-01-19T10:14:54.428Z,63.19
2019-01-19T10:17:27.472Z,63.08
2019-01-19T10:19:56.195Z,63.04
2019-01-19T10:22:26.291Z,63.16
2019-01-19T10:24:54.688Z,63.20
2019-01-19T10:27:28.654Z,63.11
2019-01-19T10:29:57.144Z,63.00
2019-01-19T10:32:25.852Z,62.88
2019-01-19T10:35:04.545Z,62.57
2019-01-19T10:37:38.783Z,62.57
2019-01-19T10:40:08.827Z,62.53
2019-01-19T10:42:39.816Z,62.43
2019-01-19T10:45:13.776Z,62.23
2019-01-19T10:47:56.089Z,61.49
2019-01-19T10:50:36.622Z,61.54
2019-01-19T10:53:07.540Z,61.55
2019-01-19T10:55:48.723Z,61.38
2019-01-19T10:58:23.945Z,61.25
2019-01-19T11:01:13.749Z,61.15
2019-01-19T11:03:44.889Z,60.79
2019-01-19T11:06:41.294Z,60.49
2019-01-19T11:09:15.225Z,60.46
2019-01-19T11:11:49.073Z,60.45
2019-01-19T11:14:21.085Z,60.47
2019-01-19T11:16:52.700Z,60.43
2019-01-19T11:19:21.312Z,60.43
2019-01-19T11:21:50.008Z,60.59
2019-01-19T11:24:22.558Z,60.92
2019-01-19T11:26:51.096Z,61.08
2019-01-19T11:29:28.811Z,61.10
2019-01-19T11:31:57.857Z,61.25
2019-01-19T11:34:27.001Z,61.15
2019-01-19T11:36:55.635Z,61.18
2019-01-19T11:39:26.407Z,61.24
2019-01-19T11:41:56.246Z,61.38
2019-01-19T11:44:28.700Z,61.41
2019-01-19T11:46:59.251Z,61.50
2019-01-19T11:49:27.774Z,61.37
2019-01-19T11:52:00.367Z,61.16
2019-01-19T11:54:28.798Z,60.79
2019-01-19T11:56:57.317Z,60.21
2019-01-19T11:59:25.360Z,60.11
2019-01-19T12:01:58.213Z,59.92
2019-01-19T12:04:26.588Z,59.51
2019-01-19T12:06:58.237Z,58.81
2019-01-19T12:09:26.763Z,58.16
2019-01-19T12:11:55.274Z,58.01
2019-01-19T12:14:26.754Z,57.71
2019-01-19T12:16:55.060Z,57.78
2019-01-19T12:19:23.530Z,57.39
2019-01-19T12:21:52.255Z,57.10
2019-01-19T12:24:21.344Z,57.05
2019-01-19T12:26:49.626Z,56.93
2019-01-19T12:29:17.716Z,56.63
2019-01-19T12:31:45.800Z,56.42
2019-01-19T12:34:14.172Z,56.38
2019-01-19T12:36:42.649Z,56.55
2019-01-19T12:39:10.908Z,56.56
2019-01-19T12:41:40.059Z,56.34
2019-01-19T12:44:09.233Z,55.92
2019-01-19T12:46:38.207Z,55.55
2019-01-19T12:49:07.902Z,55.10
2019-01-19T12:51:36.369Z,54.88
2019-01-19T12:54:04.689Z,54.77
2019-01-19T12:56:33.359Z,54.84
2019-01-19T12:59:01.465Z,54.90
2019-01-19T13:01:30.191Z,54.85
2019-01-19T13:03:59.683Z,55.05
2019-01-19T13:06:57.836Z,55.15
2019-01-19T13:09:38.160Z,55.37
2019-01-19T13:12:33.572Z,55.72
2019-01-19T13:15:37.438Z,55.95
2019-01-19T13:18:42.231Z,56.01
2019-01-19T13:22:01.156Z,55.99
2019-01-19T13:25:09.060Z,55.90
2019-01-19T13:28:05.343Z,55.94
2019-01-19T13:31:09.489Z,56.08
2019-01-19T13:34:28.948Z,56.08
2019-01-19T13:37:33.283Z,56.36
2019-01-19T13:40:40.704Z,56.42
2019-01-19T13:43:48.396Z,56.62
2019-01-19T13:47:06.102Z,56.87
2019-01-19T13:50:12.328Z,57.03
2019-01-19T13:53:03.460Z,57.33
2019-01-19T13:55:56.869Z,57.62
2019-01-19T13:58:54.537Z,57.94
2019-01-19T14:02:00.065Z,58.20
2019-01-19T14:05:08.942Z,58.33
2019-01-19T14:08:35.230Z,58.29
2019-01-19T14:11:43.504Z,58.12
2019-01-19T14:14:53.256Z,58.15
2019-01-19T14:17:37.944Z,58.16
2019-01-19T14:20:50.026Z,58.01
2019-01-19T14:23:45.680Z,58.11
2019-01-19T14:26:42.619Z,58.02
2019-01-19T14:30:00.357Z,57.96
2019-01-19T14:33:07.674Z,58.16
2019-01-19T14:36:49.781Z,58.05
2019-01-19T14:39:53.427Z,58.05
2019-01-19T14:42:57.031Z,58.01
2019-01-19T14:46:09.707Z,57.98
2019-01-19T14:49:18.110Z,58.04
2019-01-19T14:52:08.415Z,58.33
2019-01-19T14:55:11.621Z,58.62
2019-01-19T14:58:16.537Z,58.85
2019-01-19T15:00:59.536Z,58.96
2019-01-19T15:03:50.801Z,59.20
2019-01-19T15:06:55.349Z,59.35
2019-01-19T15:09:42.846Z,59.33
2019-01-19T15:12:48.725Z,59.54
2019-01-19T15:15:53.152Z,59.75
2019-01-19T15:19:12.085Z,59.97
2019-01-19T15:22:19.075Z,60.18
2019-01-19T15:25:11.217Z,60.43
2019-01-19T15:27:58.316Z,60.77
2019-01-19T15:31:11.869Z,61.08
2019-01-19T15:34:20.915Z,61.42
2019-01-19T15:37:15.026Z,61.74
2019-01-19T15:40:19.699Z,62.20
2019-01-19T15:43:26.057Z,62.50
2019-01-19T15:46:42.224Z,62.85
2019-01-19T15:49:41.838Z,62.91
2019-01-19T15:52:19.271Z,63.05
2019-01-19T15:55:21.185Z,63.34
2019-01-19T15:58:24.034Z,63.48
2019-01-19T16:01:28.661Z,63.99
2019-01-19T16:04:29.096Z,64.48
2019-01-19T16:07:32.746Z,65.20
2019-01-19T16:10:29.280Z,65.43
2019-01-19T16:13:21.649Z,65.66
2019-01-19T16:16:27.806Z,65.95
2019-01-19T16:19:41.842Z,66.16
2019-01-19T16:22:39.696Z,66.20
2019-01-19T16:25:30.056Z,66.59
2019-01-19T16:28:53.219Z,67.00
2019-01-19T16:31:40.794Z,67.00
2019-01-19T16:34:37.722Z,67.16
2019-01-19T16:38:01.223Z,67.51
2019-01-19T16:41:13.762Z,67.51
2019-01-19T16:44:25.282Z,67.51
2019-01-19T16:47:36.507Z,67.84
2019-01-19T16:50:48.155Z,68.06
2019-01-19T16:53:56.255Z,68.08
2019-01-19T16:57:11.374Z,68.26
2019-01-19T17:00:10.193Z,68.36
2019-01-19T17:03:04.058Z,68.38
2019-01-19T17:05:57.091Z,68.42
2019-01-19T17:09:05.170Z,68.50
2019-01-19T17:12:03.667Z,68.50
2019-01-19T17:15:05.280Z,68.54
2019-01-19T17:18:06.076Z,68.60
2019-01-19T17:21:13.390Z,68.82
2019-01-19T17:24:35.873Z,68.83
2019-01-19T17:28:09.091Z,68.94
2019-01-19T17:31:16.634Z,69.19
2019-01-19T17:34:19.717Z,69.36
2019-01-19T17:37:17.930Z,69.33
2019-01-19T17:40:11.334Z,69.58
2019-01-19T17:43:19.507Z,69.72
2019-01-19T17:46:40.809Z,69.78
2019-01-19T17:49:43.404Z,69.90
2019-01-19T17:53:05.095Z,69.98
2019-01-19T17:56:22.033Z,69.97
2019-01-19T17:59:28.619Z,70.20
2019-01-19T18:02:21.041Z,70.24
2019-01-19T18:05:39.296Z,70.49
2019-01-19T18:08:31.699Z,70.71
2019-01-19T18:11:31.590Z,70.68
2019-01-19T18:14:49.952Z,70.62
2019-01-19T18:17:49.646Z,70.50
2019-01-19T18:20:57.542Z,70.44
2019-01-19T18:24:04.396Z,70.06
2019-01-19T18:27:05.185Z,69.98
2019-01-19T18:30:19.063Z,69.82
2019-01-19T18:33:23.081Z,69.69
2019-01-19T18:36:22.712Z,69.52
2019-01-19T18:39:31.989Z,69.40
2019-01-19T18:42:56.528Z,69.27
2019-01-19T18:46:06.415Z,69.16
2019-01-19T18:49:31.211Z,68.99
2019-01-19T18:52:36.478Z,68.85
2019-01-19T18:55:57.244Z,68.50
2019-01-19T18:59:04.424Z,68.15
2019-01-19T19:01:58.395Z,67.96
2019-01-19T19:05:24.507Z,67.95
2019-01-19T19:08:25.471Z,68.11
2019-01-19T19:11:55.570Z,68.17
2019-01-19T19:15:14.362Z,68.11
2019-01-19T19:18:21.998Z,68.00
2019-01-19T19:21:52.625Z,68.16
2019-01-19T19:25:26.519Z,68.34
2019-01-19T19:28:42.203Z,68.39
2019-01-19T19:31:36.997Z,68.67
2019-01-19T19:34:37.392Z,69.06
2019-01-19T19:37:46.850Z,69.37
2019-01-19T19:41:04.239Z,69.56
2019-01-19T19:44:03.008Z,69.84
2019-01-19T19:47:16.025Z,70.04
2019-01-19T19:50:39.853Z,70.35
2019-01-19T19:53:09.525Z,70.49
2019-01-19T19:55:36.303Z,70.33
2019-01-19T19:58:04.510Z,70.25
2019-01-19T20:00:34.982Z,70.47
2019-01-19T20:03:05.567Z,70.45
2019-01-19T20:05:34.053Z,70.45
2019-01-19T20:08:03.776Z,70.51
2019-01-19T20:10:32.803Z,70.75
2019-01-19T20:13:03.547Z,70.86
2019-01-19T20:15:39.585Z,70.97
2019-01-19T20:18:09.703Z,71.22
2019-01-19T20:20:39.597Z,71.30
2019-01-19T20:23:09.572Z,71.29
2019-01-19T20:25:39.784Z,71.37
2019-01-19T20:28:09.466Z,71.58
2019-01-19T20:30:40.649Z,71.59
2019-01-19T20:33:09.060Z,71.70
2019-01-19T20:35:38.559Z,71.85
2019-01-19T20:38:09.672Z,71.77
2019-01-19T20:40:39.536Z,71.83
2019-01-19T20:43:08.004Z,71.88
2019-01-19T20:45:36.650Z,71.97
2019-01-19T20:48:10.699Z,72.10
2019-01-19T20:50:40.458Z,72.17
2019-01-19T20:53:09.825Z,72.39
2019-01-19T20:55:40.227Z,72.54
2019-01-19T20:58:09.278Z,72.49
2019-01-19T21:00:39.774Z,72.83
2019-01-19T21:03:12.668Z,72.76
2019-01-19T21:05:41.414Z,72.67
2019-01-19T21:08:16.024Z,72.54
2019-01-19T21:10:44.989Z,72.50
2019-01-19T21:13:13.652Z,72.73
2019-01-19T21:15:42.079Z,72.94
2019-01-19T21:18:15.539Z,73.01
2019-01-19T21:20:44.187Z,72.99
2019-01-19T21:23:13.205Z,72.95
2019-01-19T21:25:45.651Z,72.99
2019-01-19T21:28:14.893Z,72.94
2019-01-19T21:30:43.729Z,72.98
2019-01-19T21:33:12.260Z,72.92
2019-01-19T21:35:40.443Z,72.91
2019-01-19T21:38:12.931Z,72.94
2019-01-19T21:40:41.204Z,72.95
2019-01-19T21:43:09.442Z,72.94
2019-01-19T21:45:38.073Z,72.88
2019-01-19T21:48:06.860Z,72.73
2019-01-19T21:50:35.072Z,72.71
2019-01-19T21:53:06.595Z,72.78
2019-01-19T21:55:34.664Z,72.88
2019-01-19T21:58:05.134Z,72.93
2019-01-19T22:00:35.322Z,72.93
2019-01-19T22:03:06.782Z,72.96
2019-01-19T22:05:35.069Z,72.99
2019-01-19T22:08:06.402Z,73.01
2019-01-19T22:10:34.562Z,72.94
2019-01-19T22:13:06.284Z,72.81
2019-01-19T22:15:38.421Z,72.71
2019-01-19T22:18:07.330Z,72.72
2019-01-19T22:20:36.574Z,72.64
2019-01-19T22:23:05.779Z,72.77
2019-01-19T22:25:37.928Z,72.95
2019-01-19T22:28:06.169Z,73.00
2019-01-19T22:30:36.020Z,73.07
2019-01-19T22:33:11.007Z,73.01
2019-01-19T22:35:39.385Z,72.88
2019-01-19T22:38:08.072Z,72.86
2019-01-19T22:40:36.885Z,72.69
2019-01-19T22:43:10.820Z,72.56
2019-01-19T22:45:42.443Z,72.47
2019-01-19T22:48:11.912Z,72.42
2019-01-19T22:50:40.182Z,72.40
2019-01-19T22:53:08.841Z,72.33
2019-01-19T22:55:37.133Z,72.22
2019-01-19T22:58:05.660Z,72.09
2019-01-19T23:01:08.572Z,72.03
2019-01-19T23:03:38.433Z,71.94
2019-01-19T23:06:07.865Z,71.73
2019-01-19T23:08:35.999Z,71.68
2019-01-19T23:11:04.649Z,71.63
2019-01-19T23:13:34.705Z,71.55
2019-01-19T23:16:03.484Z,71.44
2019-01-19T23:18:32.341Z,71.42
2019-01-19T23:21:00.280Z,71.29
2019-01-19T23:23:28.384Z,71.19
2019-01-19T23:26:01.366Z,71.04
2019-01-19T23:28:30.329Z,71.04
2019-01-19T23:30:58.522Z,71.13
2019-01-19T23:33:27.735Z,71.14
2019-01-19T23:35:56.018Z,71.07
2019-01-19T23:38:24.114Z,71.01
2019-01-19T23:40:52.079Z,71.00
2019-01-19T23:43:22.117Z,70.94
2019-01-19T23:45:50.217Z,70.83
2019-01-19T23:48:18.199Z,70.62
2019-01-19T23:50:46.148Z,70.45
2019-01-19T23:53:15.511Z,70.36
2019-01-19T23:55:43.530Z,70.22
2019-01-19T23:58:12.623Z,70.24
